createdAt,value
2023-03-28T00:01:10.362Z,14.00
2023-03-28T00:03:40.266Z,14.00
2023-03-28T00:06:13.189Z,14.10
2023-03-28T00:08:41.049Z,14.00
2023-03-28T00:11:11.572Z,14.00
2023-03-28T00:13:39.144Z,14.00
2023-03-28T00:16:09.259Z,14.00
2023-03-28T00:18:39.231Z,14.00
2023-03-28T00:21:18.062Z,14.00
2023-03-28T00:23:45.360Z,14.10
2023-03-28T00:26:15.031Z,14.10
2023-03-28T00:28:42.360Z,14.00
2023-03-28T00:31:09.307Z,13.90
2023-03-28T00:33:36.288Z,13.90
2023-03-28T00:36:04.085Z,13.90
2023-03-28T00:38:32.215Z,13.80
2023-03-28T00:40:59.855Z,13.70
2023-03-28T00:43:41.448Z,13.70
2023-03-28T00:46:18.901Z,13.70
2023-03-28T00:48:51.580Z,13.60
2023-03-28T00:51:23.622Z,13.50
2023-03-28T00:53:53.021Z,13.50
2023-03-28T00:56:23.494Z,13.40
2023-03-28T00:58:52.278Z,13.40
2023-03-28T01:01:20.674Z,13.30
2023-03-28T01:03:56.383Z,13.30
2023-03-28T01:06:25.174Z,13.30
2023-03-28T01:08:53.047Z,13.30
2023-03-28T01:11:20.613Z,13.30
2023-03-28T01:13:52.042Z,13.20
2023-03-28T01:16:20.797Z,13.20
2023-03-28T01:18:52.151Z,13.20
2023-03-28T01:21:37.505Z,13.10
2023-03-28T01:24:13.280Z,13.10
2023-03-28T01:26:49.084Z,13.10
2023-03-28T01:29:21.961Z,13.10
2023-03-28T01:32:19.585Z,13.10
2023-03-28T01:35:04.493Z,13.10
2023-03-28T01:38:03.027Z,13.10
2023-03-28T01:40:35.745Z,13.00
2023-03-28T01:43:24.026Z,13.00
2023-03-28T01:46:07.076Z,12.90
2023-03-28T01:48:52.871Z,13.00
2023-03-28T01:51:39.659Z,13.00
2023-03-28T01:54:30.191Z,12.90
2023-03-28T01:56:57.298Z,12.90
2023-03-28T01:59:48.007Z,12.80
2023-03-28T02:02:22.539Z,12.70
2023-03-28T02:04:51.231Z,12.70
2023-03-28T02:07:22.016Z,12.70
2023-03-28T02:09:52.074Z,12.70
2023-03-28T02:12:31.573Z,12.50
2023-03-28T02:15:04.231Z,12.60
2023-03-28T02:17:34.999Z,12.50
2023-03-28T02:20:09.142Z,12.50
2023-03-28T02:22:41.059Z,12.60
2023-03-28T02:25:08.540Z,12.50
2023-03-28T02:27:37.665Z,12.50
2023-03-28T02:30:06.349Z,12.40
2023-03-28T02:32:34.251Z,12.20
2023-03-28T02:35:04.574Z,12.20
2023-03-28T02:37:49.798Z,12.10
2023-03-28T02:40:25.571Z,12.20
2023-03-28T02:43:13.996Z,12.10
2023-03-28T02:46:04.050Z,12.20
2023-03-28T02:49:19.369Z,12.10
2023-03-28T02:52:09.447Z,12.10
2023-03-28T02:54:58.657Z,12.10
2023-03-28T02:57:36.617Z,12.00
2023-03-28T03:00:12.415Z,12.20
2023-03-28T03:02:51.772Z,12.00
2023-03-28T03:05:20.800Z,12.10
2023-03-28T03:07:51.631Z,12.00
2023-03-28T03:10:19.165Z,12.10
2023-03-28T03:12:46.143Z,12.20
2023-03-28T03:15:17.149Z,12.00
2023-03-28T03:17:44.516Z,12.00
2023-03-28T03:20:12.151Z,12.00
2023-03-28T03:22:39.315Z,12.00
2023-03-28T03:25:08.369Z,11.90
2023-03-28T03:27:37.066Z,11.80
2023-03-28T03:30:05.561Z,11.80
2023-03-28T03:32:33.415Z,11.80
2023-03-28T03:35:00.632Z,11.60
2023-03-28T03:37:27.776Z,11.70
2023-03-28T03:39:54.662Z,11.70
2023-03-28T03:42:21.480Z,11.70
2023-03-28T03:44:48.528Z,11.60
2023-03-28T03:47:17.944Z,11.70
2023-03-28T03:49:44.914Z,11.70
2023-03-28T03:52:12.070Z,11.60
2023-03-28T03:54:39.082Z,11.70
2023-03-28T03:57:06.078Z,11.70
2023-03-28T03:59:33.081Z,11.70
2023-03-28T04:02:00.220Z,11.60
2023-03-28T04:04:28.542Z,11.60
2023-03-28T04:06:58.207Z,11.60
2023-03-28T04:09:27.614Z,11.60
2023-03-28T04:11:55.723Z,11.60
2023-03-28T04:14:22.713Z,11.60
2023-03-28T04:16:50.930Z,11.70
2023-03-28T04:19:18.299Z,11.70
2023-03-28T04:21:48.249Z,11.50
2023-03-28T04:24:24.313Z,11.60
2023-03-28T04:26:56.125Z,11.60
2023-03-28T04:29:30.908Z,11.60
2023-03-28T04:32:00.556Z,11.60
2023-03-28T04:34:30.569Z,11.50
2023-03-28T04:37:03.890Z,11.50
2023-03-28T04:39:32.830Z,11.50
2023-03-28T04:42:04.338Z,11.40
2023-03-28T04:44:31.773Z,11.50
2023-03-28T04:46:59.050Z,11.50
2023-03-28T04:49:26.672Z,11.40
2023-03-28T04:51:53.727Z,11.30
2023-03-28T04:54:20.843Z,11.30
2023-03-28T04:56:48.406Z,11.20
2023-03-28T04:59:16.357Z,11.20
2023-03-28T05:01:49.087Z,11.20
2023-03-28T05:04:22.053Z,11.20
2023-03-28T05:06:50.144Z,11.10
2023-03-28T05:09:17.797Z,11.10
2023-03-28T05:11:45.163Z,11.10
2023-03-28T05:14:12.228Z,11.10
2023-03-28T05:16:39.088Z,11.10
2023-03-28T05:19:06.816Z,11.10
2023-03-28T05:21:33.787Z,11.10
2023-03-28T05:24:00.928Z,11.00
2023-03-28T05:26:28.192Z,11.00
2023-03-28T05:28:56.738Z,11.00
2023-03-28T05:31:26.244Z,11.00
2023-03-28T05:33:53.345Z,11.00
2023-03-28T05:36:20.725Z,11.10
2023-03-28T05:38:47.948Z,11.00
2023-03-28T05:41:15.076Z,11.10
2023-03-28T05:43:42.382Z,11.10
2023-03-28T05:46:09.544Z,11.20
2023-03-28T05:48:37.179Z,11.20
2023-03-28T05:51:04.858Z,11.20
2023-03-28T05:53:31.753Z,11.40
2023-03-28T05:55:58.582Z,11.30
2023-03-28T05:58:25.542Z,11.30
2023-03-28T06:00:52.535Z,11.30
2023-03-28T06:03:20.120Z,11.40
2023-03-28T06:05:47.462Z,11.40
2023-03-28T06:08:14.508Z,11.30
2023-03-28T06:10:42.183Z,11.40
2023-03-28T06:13:09.186Z,11.40
2023-03-28T06:15:36.605Z,11.40
2023-03-28T06:18:03.686Z,11.40
2023-03-28T06:20:30.798Z,11.50
2023-03-28T06:22:57.672Z,11.60
2023-03-28T06:25:24.497Z,11.80
2023-03-28T06:27:51.458Z,11.90
2023-03-28T06:30:18.310Z,12.10
2023-03-28T06:32:45.700Z,12.30
2023-03-28T06:35:12.648Z,12.30
2023-03-28T06:37:39.516Z,12.60
2023-03-28T06:40:07.120Z,12.50
2023-03-28T06:42:36.365Z,12.70
2023-03-28T06:45:04.231Z,12.70
2023-03-28T06:47:31.222Z,12.80
2023-03-28T06:49:58.009Z,12.90
2023-03-28T06:52:24.943Z,13.10
2023-03-28T06:54:51.990Z,13.20
2023-03-28T06:57:18.972Z,13.30
2023-03-28T06:59:47.392Z,13.50
2023-03-28T07:02:14.497Z,13.70
2023-03-28T07:04:41.396Z,13.70
2023-03-28T07:07:09.608Z,13.90
2023-03-28T07:09:37.290Z,14.00
2023-03-28T07:12:04.869Z,14.10
2023-03-28T07:14:31.816Z,14.20
2023-03-28T07:16:58.815Z,14.40
2023-03-28T07:19:25.971Z,14.40
2023-03-28T07:21:56.010Z,14.70
2023-03-28T07:24:22.982Z,14.80
2023-03-28T07:26:49.922Z,15.00
2023-03-28T07:29:16.790Z,15.20
2023-03-28T07:31:46.515Z,15.60
2023-03-28T07:34:15.553Z,16.10
2023-03-28T07:36:43.455Z,16.30
2023-03-28T07:39:10.676Z,16.50
2023-03-28T07:41:38.829Z,16.80
2023-03-28T07:44:05.918Z,17.00
2023-03-28T07:46:33.293Z,17.10
2023-03-28T07:49:00.989Z,17.10
2023-03-28T07:51:27.881Z,17.10
2023-03-28T07:53:54.916Z,17.00
2023-03-28T07:56:21.873Z,16.80
2023-03-28T07:58:48.802Z,16.60
2023-03-28T08:01:18.902Z,16.40
2023-03-28T08:03:46.195Z,16.30
2023-03-28T08:06:28.580Z,16.20
2023-03-28T08:08:58.218Z,16.10
2023-03-28T08:11:25.101Z,15.90
2023-03-28T08:13:52.101Z,15.90
2023-03-28T08:16:19.496Z,15.80
2023-03-28T08:18:50.366Z,15.80
2023-03-28T08:21:21.364Z,15.80
2023-03-28T08:23:48.602Z,15.80
2023-03-28T08:26:15.492Z,15.80
2023-03-28T08:28:42.504Z,15.80
2023-03-28T08:31:14.696Z,15.80
2023-03-28T08:33:44.383Z,15.80
2023-03-28T08:36:15.185Z,15.90
2023-03-28T08:38:42.903Z,16.00
2023-03-28T08:41:43.881Z,15.90
2023-03-28T08:44:19.896Z,16.00
2023-03-28T08:46:52.344Z,15.90
2023-03-28T08:49:19.443Z,15.90
2023-03-28T08:51:51.832Z,15.90
2023-03-28T08:54:28.613Z,16.00
2023-03-28T08:57:03.747Z,16.10
2023-03-28T08:59:53.841Z,16.10
2023-03-28T09:02:29.973Z,16.20
2023-03-28T09:05:12.014Z,16.20
2023-03-28T09:08:03.584Z,16.30
2023-03-28T09:10:42.593Z,16.30
2023-03-28T09:13:30.959Z,16.30
2023-03-28T09:16:34.828Z,16.20
2023-03-28T09:19:07.946Z,16.30
2023-03-28T09:21:46.872Z,16.30
2023-03-28T09:24:26.002Z,16.30
2023-03-28T09:27:05.158Z,16.30
2023-03-28T09:29:37.542Z,16.40
2023-03-28T09:32:11.718Z,16.50
2023-03-28T09:34:44.320Z,16.40
2023-03-28T09:37:30.203Z,16.40
2023-03-28T09:40:20.160Z,16.40
2023-03-28T09:43:22.197Z,16.40
2023-03-28T09:46:10.577Z,16.50
2023-03-28T09:48:39.798Z,16.50
2023-03-28T09:51:13.640Z,16.60
2023-03-28T09:53:42.165Z,16.60
2023-03-28T09:56:18.866Z,16.70
2023-03-28T09:58:58.290Z,16.70
2023-03-28T10:01:40.512Z,16.70
2023-03-28T10:04:17.047Z,16.60
2023-03-28T10:06:45.843Z,16.70
2023-03-28T10:09:26.260Z,16.80
2023-03-28T10:12:02.303Z,16.70
2023-03-28T10:14:34.940Z,16.70
2023-03-28T10:17:11.885Z,16.70
2023-03-28T10:19:42.494Z,16.70
2023-03-28T10:22:27.255Z,16.80
2023-03-28T10:24:54.780Z,16.90
2023-03-28T10:27:29.900Z,16.90
2023-03-28T10:29:59.173Z,17.00
2023-03-28T10:32:30.964Z,17.10
2023-03-28T10:35:01.735Z,17.00
2023-03-28T10:37:32.028Z,17.10
2023-03-28T10:40:08.352Z,17.10
2023-03-28T10:42:43.954Z,17.30
2023-03-28T10:45:24.917Z,17.30
2023-03-28T10:47:56.970Z,17.40
2023-03-28T10:50:37.364Z,17.40
2023-03-28T10:53:19.639Z,17.50
2023-03-28T10:56:08.292Z,17.50
2023-03-28T10:58:40.504Z,17.60
2023-03-28T11:01:19.461Z,17.50
2023-03-28T11:04:31.090Z,17.60
2023-03-28T11:07:13.579Z,17.90
2023-03-28T11:10:05.715Z,17.80
2023-03-28T11:12:55.120Z,17.80
2023-03-28T11:15:48.326Z,18.00
2023-03-28T11:18:42.694Z,18.10
2023-03-28T11:21:27.729Z,18.10
2023-03-28T11:24:17.849Z,18.20
2023-03-28T11:27:15.654Z,18.10
2023-03-28T11:29:52.186Z,18.00
2023-03-28T11:32:24.933Z,18.10
2023-03-28T11:35:32.909Z,18.10
2023-03-28T11:38:26.454Z,18.30
2023-03-28T11:40:57.314Z,18.40
2023-03-28T11:43:45.446Z,18.30
2023-03-28T11:46:19.423Z,18.40
2023-03-28T11:48:46.381Z,18.40
2023-03-28T11:51:17.274Z,18.50
2023-03-28T11:53:51.620Z,18.60
2023-03-28T11:56:55.734Z,18.60
2023-03-28T11:59:25.990Z,18.70
2023-03-28T12:02:05.615Z,18.70
2023-03-28T12:04:41.671Z,18.80
2023-03-28T12:07:34.687Z,18.70
2023-03-28T12:10:39.889Z,18.80
2023-03-28T12:13:10.871Z,18.80
2023-03-28T12:15:52.950Z,18.90
2023-03-28T12:18:31.401Z,18.90
2023-03-28T12:21:15.892Z,18.90
2023-03-28T12:24:13.780Z,18.90
2023-03-28T12:27:17.952Z,19.00
2023-03-28T12:29:54.916Z,19.10
2023-03-28T12:32:40.835Z,19.00
2023-03-28T12:35:46.691Z,19.00
2023-03-28T12:38:32.335Z,19.00
2023-03-28T12:41:03.946Z,19.00
2023-03-28T12:43:53.131Z,19.00
2023-03-28T12:46:46.190Z,19.00
2023-03-28T12:49:21.393Z,19.00
2023-03-28T12:51:57.114Z,19.10
2023-03-28T12:54:32.974Z,19.10
2023-03-28T12:57:08.820Z,19.00
2023-03-28T12:59:38.175Z,19.00
2023-03-28T13:02:32.396Z,19.00
2023-03-28T13:05:18.276Z,19.00
2023-03-28T13:07:57.749Z,19.00
2023-03-28T13:10:36.569Z,19.00
2023-03-28T13:13:19.649Z,18.90
2023-03-28T13:16:05.399Z,18.90
2023-03-28T13:18:35.748Z,18.90
2023-03-28T13:21:05.884Z,18.90
2023-03-28T13:23:37.441Z,18.90
2023-03-28T13:26:06.933Z,19.00
2023-03-28T13:28:36.723Z,18.90
2023-03-28T13:31:13.258Z,19.10
2023-03-28T13:33:59.795Z,19.00
2023-03-28T13:36:34.307Z,19.00
2023-03-28T13:39:25.915Z,19.00
2023-03-28T13:41:55.400Z,19.00
2023-03-28T13:44:36.566Z,19.00
2023-03-28T13:47:04.605Z,19.00
2023-03-28T13:49:49.281Z,19.10
2023-03-28T13:52:20.360Z,19.10
2023-03-28T13:54:54.256Z,19.10
2023-03-28T13:57:23.839Z,19.10
2023-03-28T14:00:00.405Z,19.20
2023-03-28T14:02:33.381Z,19.20
2023-03-28T14:05:22.961Z,19.20
2023-03-28T14:07:52.027Z,19.20
2023-03-28T14:10:31.502Z,19.10
2023-03-28T14:13:02.772Z,19.10
2023-03-28T14:15:39.211Z,19.20
2023-03-28T14:18:13.070Z,19.20
2023-03-28T14:20:40.482Z,19.10
2023-03-28T14:23:07.907Z,19.10
2023-03-28T14:25:36.888Z,19.10
2023-03-28T14:28:11.245Z,19.10
2023-03-28T14:30:40.568Z,19.10
2023-03-28T14:33:12.005Z,19.10
2023-03-28T14:35:46.555Z,19.20
2023-03-28T14:38:26.697Z,19.20
2023-03-28T14:40:54.406Z,19.10
2023-03-28T14:43:29.510Z,19.10
2023-03-28T14:46:02.793Z,19.00
2023-03-28T14:48:30.645Z,18.90
2023-03-28T14:51:00.707Z,18.90
2023-03-28T14:53:32.480Z,18.90
2023-03-28T14:56:10.422Z,18.90
2023-03-28T14:58:40.679Z,18.90
2023-03-28T15:01:10.286Z,19.00
2023-03-28T15:03:42.026Z,19.00
2023-03-28T15:06:15.972Z,19.20
2023-03-28T15:08:44.751Z,19.30
2023-03-28T15:11:19.869Z,19.40
2023-03-28T15:13:50.044Z,19.30
2023-03-28T15:16:24.080Z,19.30
2023-03-28T15:19:07.346Z,19.30
2023-03-28T15:21:40.433Z,19.30
2023-03-28T15:24:12.642Z,19.20
2023-03-28T15:26:44.360Z,19.10
2023-03-28T15:29:17.444Z,19.00
2023-03-28T15:31:45.190Z,19.10
2023-03-28T15:34:24.054Z,18.90
2023-03-28T15:36:57.948Z,18.90
2023-03-28T15:39:26.168Z,18.80
2023-03-28T15:42:18.911Z,18.70
2023-03-28T15:44:58.967Z,18.60
2023-03-28T15:47:32.236Z,18.50
2023-03-28T15:50:06.277Z,18.60
2023-03-28T15:52:34.487Z,18.50
2023-03-28T15:55:02.235Z,18.40
2023-03-28T15:57:30.815Z,18.40
2023-03-28T15:59:58.955Z,18.30
2023-03-28T16:02:25.851Z,18.30
2023-03-28T16:04:59.902Z,18.20
2023-03-28T16:07:27.458Z,18.20
2023-03-28T16:09:54.367Z,18.20
2023-03-28T16:12:21.556Z,18.00
2023-03-28T16:14:52.894Z,18.00
2023-03-28T16:17:24.891Z,17.90
2023-03-28T16:19:52.253Z,17.90
2023-03-28T16:22:21.141Z,17.70
2023-03-28T16:24:53.017Z,17.70
2023-03-28T16:27:22.029Z,17.50
2023-03-28T16:29:49.255Z,17.40
2023-03-28T16:32:17.007Z,17.30
2023-03-28T16:34:44.558Z,17.20
2023-03-28T16:37:11.571Z,17.20
2023-03-28T16:39:38.755Z,17.00
2023-03-28T16:42:06.816Z,17.00
2023-03-28T16:44:33.962Z,16.90
2023-03-28T16:47:01.702Z,16.80
2023-03-28T16:49:29.363Z,16.60
2023-03-28T16:51:56.296Z,16.60
2023-03-28T16:54:23.914Z,16.60
2023-03-28T16:56:52.289Z,16.40
2023-03-28T16:59:20.780Z,16.40
2023-03-28T17:01:48.745Z,16.40
2023-03-28T17:04:15.649Z,16.30
2023-03-28T17:06:42.586Z,16.20
2023-03-28T17:09:10.088Z,16.30
2023-03-28T17:11:36.988Z,16.10
2023-03-28T17:14:03.926Z,16.00
2023-03-28T17:16:30.929Z,16.00
2023-03-28T17:18:58.079Z,16.00
2023-03-28T17:21:25.222Z,15.90
2023-03-28T17:23:52.892Z,15.90
2023-03-28T17:26:20.041Z,15.80
2023-03-28T17:28:47.283Z,15.80
2023-03-28T17:31:17.125Z,15.80
2023-03-28T17:33:45.310Z,15.70
2023-03-28T17:36:19.663Z,15.70
2023-03-28T17:38:52.469Z,15.60
2023-03-28T17:41:19.659Z,15.60
2023-03-28T17:43:46.811Z,15.50
2023-03-28T17:46:13.676Z,15.50
2023-03-28T17:48:42.790Z,15.50
2023-03-28T17:51:11.790Z,15.40
2023-03-28T17:53:40.135Z,15.40
2023-03-28T17:56:08.712Z,15.30
2023-03-28T17:58:40.102Z,15.30
2023-03-28T18:01:12.188Z,15.20
2023-03-28T18:03:39.506Z,15.20
2023-03-28T18:06:09.377Z,15.10
2023-03-28T18:08:36.505Z,15.20
2023-03-28T18:11:09.266Z,15.10
2023-03-28T18:13:44.216Z,15.20
2023-03-28T18:16:14.309Z,15.10
2023-03-28T18:18:41.590Z,15.00
2023-03-28T18:21:08.900Z,15.00
2023-03-28T18:23:37.107Z,15.00
2023-03-28T18:26:04.634Z,14.90
2023-03-28T18:28:31.909Z,14.80
2023-03-28T18:31:12.902Z,14.70
2023-03-28T18:33:40.977Z,14.80
2023-03-28T18:36:08.409Z,14.70
2023-03-28T18:38:40.276Z,14.70
2023-03-28T18:41:08.425Z,14.60
2023-03-28T18:43:41.202Z,14.70
2023-03-28T18:46:09.028Z,14.60
2023-03-28T18:48:36.426Z,14.60
2023-03-28T18:51:06.376Z,14.50
2023-03-28T18:53:41.230Z,14.50
2023-03-28T18:56:09.664Z,14.50
2023-03-28T18:58:38.556Z,14.40
2023-03-28T19:01:08.906Z,14.50
2023-03-28T19:03:40.369Z,14.40
2023-03-28T19:06:09.097Z,14.40
2023-03-28T19:08:36.995Z,14.30
2023-03-28T19:11:10.170Z,14.30
2023-03-28T19:13:37.489Z,14.30
2023-03-28T19:16:11.039Z,14.20
2023-03-28T19:18:39.783Z,14.20
2023-03-28T19:21:08.023Z,14.20
2023-03-28T19:23:36.982Z,14.20
2023-03-28T19:26:06.848Z,14.20
2023-03-28T19:28:34.194Z,14.00
2023-03-28T19:31:04.362Z,14.10
2023-03-28T19:33:31.350Z,14.10
2023-03-28T19:36:01.172Z,14.00
2023-03-28T19:38:30.956Z,14.00
2023-03-28T19:41:02.835Z,13.90
2023-03-28T19:43:30.976Z,13.90
2023-03-28T19:46:06.631Z,13.80
2023-03-28T19:48:35.210Z,13.90
2023-03-28T19:51:02.757Z,13.80
2023-03-28T19:53:29.818Z,13.70
2023-03-28T19:55:59.207Z,13.80
2023-03-28T19:58:27.555Z,13.70
2023-03-28T20:00:56.326Z,13.60
2023-03-28T20:03:23.377Z,13.60
2023-03-28T20:05:51.263Z,13.60
2023-03-28T20:08:19.173Z,13.60
2023-03-28T20:10:49.142Z,13.50
2023-03-28T20:13:17.240Z,13.50
2023-03-28T20:15:46.235Z,13.50
2023-03-28T20:18:20.537Z,13.50
2023-03-28T20:20:58.712Z,13.50
2023-03-28T20:23:27.039Z,13.40
2023-03-28T20:25:54.726Z,13.40
2023-03-28T20:28:24.723Z,13.20
2023-03-28T20:30:53.686Z,13.30
2023-03-28T20:33:20.954Z,13.30
2023-03-28T20:35:56.143Z,13.20
2023-03-28T20:38:23.373Z,13.20
2023-03-28T20:40:50.670Z,13.10
2023-03-28T20:43:20.757Z,13.10
2023-03-28T20:45:53.883Z,13.10
2023-03-28T20:48:37.287Z,13.10
2023-03-28T20:51:17.174Z,13.10
2023-03-28T20:53:47.514Z,13.00
2023-03-28T20:56:14.687Z,13.00
2023-03-28T20:58:42.833Z,13.00
2023-03-28T21:01:12.803Z,12.90
2023-03-28T21:03:47.171Z,13.00
2023-03-28T21:06:15.861Z,12.90
2023-03-28T21:08:45.950Z,12.90
2023-03-28T21:11:22.217Z,12.80
2023-03-28T21:13:50.148Z,12.80
2023-03-28T21:16:19.188Z,12.80
2023-03-28T21:18:46.840Z,12.70
2023-03-28T21:21:16.216Z,12.80
2023-03-28T21:23:44.851Z,12.70
2023-03-28T21:26:18.546Z,12.70
2023-03-28T21:28:46.520Z,12.60
2023-03-28T21:31:27.301Z,12.60
2023-03-28T21:33:57.302Z,12.50
2023-03-28T21:36:25.498Z,12.50
2023-03-28T21:38:53.157Z,12.40
2023-03-28T21:41:20.750Z,12.40
2023-03-28T21:43:48.311Z,12.30
2023-03-28T21:46:18.441Z,12.30
2023-03-28T21:48:48.448Z,12.30
2023-03-28T21:51:17.478Z,12.20
2023-03-28T21:53:44.983Z,12.30
2023-03-28T21:56:14.603Z,12.10
2023-03-28T21:58:41.904Z,12.10
2023-03-28T22:01:13.349Z,12.20
2023-03-28T22:03:40.632Z,12.10
2023-03-28T22:06:08.208Z,12.10
2023-03-28T22:08:35.236Z,12.00
2023-03-28T22:11:04.403Z,11.90
2023-03-28T22:13:31.708Z,11.90
2023-03-28T22:15:59.911Z,11.80
2023-03-28T22:18:28.180Z,11.80
2023-03-28T22:20:55.200Z,11.60
2023-03-28T22:23:25.137Z,11.70
2023-03-28T22:25:53.323Z,11.60
2023-03-28T22:28:24.552Z,11.60
2023-03-28T22:30:56.716Z,11.60
2023-03-28T22:33:25.403Z,11.60
2023-03-28T22:35:53.110Z,11.50
2023-03-28T22:38:20.401Z,11.50
2023-03-28T22:40:47.784Z,11.50
2023-03-28T22:43:15.578Z,11.50
2023-03-28T22:45:43.079Z,11.50
2023-03-28T22:48:16.187Z,11.50
2023-03-28T22:50:47.475Z,11.40
2023-03-28T22:53:15.274Z,11.50
2023-03-28T22:55:44.025Z,11.40
2023-03-28T22:58:12.129Z,11.20
2023-03-28T23:00:39.202Z,11.30
2023-03-28T23:03:08.136Z,11.30
2023-03-28T23:05:35.339Z,11.30
2023-03-28T23:08:02.533Z,11.20
2023-03-28T23:10:30.476Z,11.20
2023-03-28T23:12:58.054Z,11.20
2023-03-28T23:15:25.372Z,11.10
2023-03-28T23:17:52.809Z,11.10
2023-03-28T23:20:20.196Z,11.00
2023-03-28T23:22:48.739Z,11.00
2023-03-28T23:25:18.827Z,11.10
2023-03-28T23:27:46.885Z,11.10
2023-03-28T23:30:16.167Z,10.90
2023-03-28T23:32:43.363Z,10.90
2023-03-28T23:35:11.094Z,10.80
2023-03-28T23:37:38.665Z,10.90
2023-03-28T23:40:11.284Z,10.90
2023-03-28T23:42:38.430Z,10.80
2023-03-28T23:45:05.854Z,10.80
2023-03-28T23:47:32.831Z,10.90
2023-03-28T23:49:59.859Z,10.80
2023-03-28T23:52:27.342Z,10.80
2023-03-28T23:54:54.412Z,10.80
2023-03-28T23:57:25.066Z,10.80
2023-03-28T23:59:52.302Z,10.70
